Time;durP1;ratioP1;P1;durP2;ratioP2;P2;SDS_P1;SDS_P2;PMS_P1;PMS_P2;Temp;Humidity;BMP_temperature;BMP_pressure;BME280_temperature;BME280_humidity;BME280_pressure;Samples;Min_cycle;Max_cycle;Signal;HPM_P1;HPM_P2
2022/10/31 00:01:36;;;;;;;18.17;11.98;;;14.30;99.90;;;;;;5031125;28;20201;-62
2022/10/31 00:04:03;;;;;;;19.45;12.52;;;14.20;99.90;;;;;;5049648;28;20197;-62
2022/10/31 00:06:30;;;;;;;17.33;11.23;;;14.20;99.90;;;;;;5053754;28;20212;-62
2022/10/31 00:08:59;;;;;;;22.45;13.52;;;14.20;99.90;;;;;;5031041;28;20213;-62
2022/10/31 00:11:27;;;;;;;19.42;13.02;;;14.30;99.90;;;;;;5047872;28;20208;-62
2022/10/31 00:13:54;;;;;;;16.75;12.13;;;14.30;99.90;;;;;;5025042;28;20716;-62
2022/10/31 00:16:24;;;;;;;17.63;12.02;;;14.30;99.90;;;;;;5039704;28;20204;-63
2022/10/31 00:18:51;;;;;;;19.55;11.43;;;14.20;99.90;;;;;;5044740;28;20232;-62
2022/10/31 00:21:18;;;;;;;24.95;12.35;;;14.20;99.90;;;;;;5038377;28;20200;-62
2022/10/31 00:23:46;;;;;;;18.85;11.80;;;14.20;99.90;;;;;;5034461;28;20224;-62
2022/10/31 00:26:13;;;;;;;25.85;11.70;;;14.20;99.90;;;;;;5020769;28;20208;-62
2022/10/31 00:28:39;;;;;;;16.40;11.60;;;14.10;99.90;;;;;;5028460;28;20921;-62
2022/10/31 00:31:09;;;;;;;16.98;11.30;;;14.20;99.90;;;;;;5036205;28;20251;-62
2022/10/31 00:33:38;;;;;;;15.82;11.52;;;14.10;99.90;;;;;;5047518;28;20205;-63
2022/10/31 00:36:08;;;;;;;16.10;11.23;;;14.00;99.90;;;;;;5038811;28;20244;-63
2022/10/31 00:38:34;;;;;;;22.08;13.18;;;13.90;99.90;;;;;;5045930;28;20205;-63
2022/10/31 00:41:01;;;;;;;18.45;10.73;;;13.90;99.90;;;;;;5032186;28;20213;-63
2022/10/31 00:43:28;;;;;;;20.38;12.90;;;13.90;99.90;;;;;;5027486;28;20217;-62
2022/10/31 00:45:55;;;;;;;17.02;12.18;;;13.80;99.90;;;;;;5051739;28;20204;-63
2022/10/31 00:48:22;;;;;;;19.75;12.60;;;13.80;99.90;;;;;;5035478;28;21013;-63
2022/10/31 00:50:50;;;;;;;18.38;12.20;;;13.90;99.90;;;;;;5046827;28;20212;-63
2022/10/31 00:53:17;;;;;;;18.88;11.80;;;13.90;99.90;;;;;;5036940;28;20204;-63
2022/10/31 00:55:44;;;;;;;17.08;11.02;;;13.90;99.90;;;;;;5029295;28;20216;-64
2022/10/31 00:58:11;;;;;;;22.95;12.40;;;13.80;99.90;;;;;;5038074;28;20201;-63
2022/10/31 01:00:38;;;;;;;18.75;11.02;;;13.80;99.90;;;;;;5042120;28;20692;-63
2022/10/31 01:03:04;;;;;;;17.67;10.50;;;13.80;99.90;;;;;;5053722;28;20566;-63
2022/10/31 01:05:31;;;;;;;14.20;10.90;;;13.80;99.90;;;;;;5039757;28;20215;-63
2022/10/31 01:08:00;;;;;;;16.90;11.27;;;13.90;99.90;;;;;;5050909;28;20239;-63
2022/10/31 01:10:27;;;;;;;18.58;11.45;;;13.70;99.90;;;;;;5025110;28;20200;-64
2022/10/31 01:12:53;;;;;;;14.20;10.00;;;13.60;99.90;;;;;;5042179;28;20211;-63
2022/10/31 01:15:22;;;;;;;19.73;11.30;;;13.60;99.90;;;;;;5025518;28;20197;-63
2022/10/31 01:17:50;;;;;;;18.75;10.57;;;13.60;99.90;;;;;;5045399;28;20228;-63
2022/10/31 01:20:17;;;;;;;17.58;10.80;;;13.50;99.90;;;;;;5048956;28;20660;-63
2022/10/31 01:22:44;;;;;;;18.80;11.25;;;13.40;99.90;;;;;;5034369;28;20205;-63
2022/10/31 01:25:13;;;;;;;17.98;11.40;;;13.50;99.90;;;;;;5040324;28;20201;-63
2022/10/31 01:27:39;;;;;;;14.65;10.85;;;13.50;99.90;;;;;;5021842;28;20217;-63
2022/10/31 01:30:07;;;;;;;18.00;11.18;;;13.50;99.90;;;;;;5024731;28;20208;-63
2022/10/31 01:32:34;;;;;;;18.63;11.63;;;13.40;99.90;;;;;;5031146;28;20205;-63
2022/10/31 01:35:01;;;;;;;18.45;10.95;;;13.40;99.90;;;;;;5048079;28;20201;-63
2022/10/31 01:37:28;;;;;;;24.70;10.88;;;13.30;99.90;;;;;;5047352;28;20219;-63
2022/10/31 01:39:55;;;;;;;13.02;9.23;;;13.30;99.90;;;;;;5043951;28;20938;-63
2022/10/31 01:42:24;;;;;;;14.25;9.93;;;13.30;99.90;;;;;;5027437;28;20213;-64
2022/10/31 01:45:00;;;;;;;15.55;10.35;;;13.30;99.90;;;;;;5023869;28;20208;-63
2022/10/31 01:47:43;;;;;;;15.18;10.50;;;13.30;99.90;;;;;;5035703;28;20720;-63
2022/10/31 01:50:16;;;;;;;19.10;11.02;;;13.30;99.90;;;;;;5042748;28;20205;-63
2022/10/31 01:52:45;;;;;;;12.05;8.48;;;13.40;99.90;;;;;;5042226;28;20551;-63
2022/10/31 01:55:16;;;;;;;12.93;9.18;;;13.40;99.90;;;;;;5030950;28;20216;-63
2022/10/31 01:57:48;;;;;;;14.05;8.80;;;13.30;99.90;;;;;;5023430;28;20604;-63
2022/10/31 02:00:16;;;;;;;14.20;8.88;;;13.30;99.90;;;;;;5043447;28;20208;-63
2022/10/31 02:02:43;;;;;;;12.45;7.95;;;13.30;99.90;;;;;;5014675;28;20212;-63
2022/10/31 02:05:13;;;;;;;10.70;8.82;;;13.20;99.90;;;;;;5043672;28;20208;-63
2022/10/31 02:07:44;;;;;;;18.42;8.07;;;13.20;99.90;;;;;;5046775;28;20236;-63
2022/10/31 02:10:11;;;;;;;9.98;7.63;;;13.00;99.90;;;;;;5036930;28;20201;-63
2022/10/31 02:12:39;;;;;;;23.13;7.13;;;12.90;99.90;;;;;;5014151;28;20201;-63
2022/10/31 02:15:09;;;;;;;69.60;7.47;;;12.80;99.90;;;;;;5043495;28;20730;-63
2022/10/31 02:17:36;;;;;;;8.30;7.03;;;12.60;99.90;;;;;;5012157;28;20212;-63
2022/10/31 02:20:14;;;;;;;11.10;6.90;;;12.50;99.90;;;;;;5042338;28;20713;-63
2022/10/31 02:22:59;;;;;;;8.95;6.82;;;12.40;99.90;;;;;;5042611;28;20205;-63
2022/10/31 02:25:59;;;;;;;9.43;7.13;;;12.30;99.90;;;;;;5038392;28;20216;-63
2022/10/31 02:28:42;;;;;;;8.98;7.22;;;12.40;99.90;;;;;;5026111;28;20678;-63
2022/10/31 02:31:23;;;;;;;9.55;6.53;;;12.40;99.90;;;;;;5043437;28;20205;-63
2022/10/31 02:33:53;;;;;;;11.30;6.57;;;12.50;99.90;;;;;;5009811;28;20264;-63
2022/10/31 02:36:27;;;;;;;10.32;7.45;;;12.50;99.90;;;;;;5043891;28;20200;-62
2022/10/31 02:39:07;;;;;;;12.32;6.63;;;12.60;99.90;;;;;;5045419;28;20450;-62
2022/10/31 02:41:42;;;;;;;11.48;6.68;;;12.60;99.90;;;;;;5029115;28;20200;-63
2022/10/31 02:44:16;;;;;;;12.77;7.50;;;12.60;99.90;;;;;;5025576;28;20583;-63
2022/10/31 02:46:49;;;;;;;9.98;7.85;;;12.60;99.90;;;;;;5040000;28;20194;-63
2022/10/31 02:49:23;;;;;;;15.15;7.15;;;12.60;99.90;;;;;;5024751;28;20228;-63
2022/10/31 02:51:51;;;;;;;12.50;7.68;;;12.70;99.90;;;;;;5043344;28;20192;-62
2022/10/31 02:54:24;;;;;;;10.68;7.78;;;12.70;99.90;;;;;;5040593;28;20230;-62
2022/10/31 02:56:54;;;;;;;11.20;7.28;;;12.70;99.90;;;;;;5030575;28;20202;-63
2022/10/31 02:59:23;;;;;;;8.13;6.63;;;12.70;99.90;;;;;;5034111;28;20283;-63
2022/10/31 03:02:17;;;;;;;11.85;7.57;;;12.60;99.90;;;;;;5031526;28;20223;-62
2022/10/31 03:05:04;;;;;;;10.93;7.28;;;12.60;99.90;;;;;;5010993;28;20236;-63
2022/10/31 03:07:40;;;;;;;8.15;6.45;;;12.60;99.90;;;;;;5007717;28;20197;-62
2022/10/31 03:10:14;;;;;;;13.13;7.70;;;12.50;99.90;;;;;;5036976;28;20197;-62
2022/10/31 03:12:50;;;;;;;13.88;8.02;;;12.40;99.90;;;;;;5033587;28;20212;-62
2022/10/31 03:15:23;;;;;;;11.10;7.60;;;12.40;99.90;;;;;;5047886;28;20197;-63
2022/10/31 03:17:59;;;;;;;11.35;7.00;;;12.40;99.90;;;;;;5031550;28;20229;-62
2022/10/31 03:20:34;;;;;;;10.27;6.40;;;12.40;99.90;;;;;;5023459;28;20215;-62
2022/10/31 03:23:03;;;;;;;101.35;6.57;;;12.40;99.90;;;;;;5042155;28;20204;-63
2022/10/31 03:25:31;;;;;;;134.63;6.50;;;12.20;99.90;;;;;;5042959;28;20226;-62
2022/10/31 03:28:00;;;;;;;114.28;7.70;;;12.10;99.90;;;;;;5031005;28;20239;-63
2022/10/31 03:30:27;;;;;;;243.30;8.93;;;11.90;99.90;;;;;;5045760;28;20204;-62
2022/10/31 03:32:59;;;;;;;28.42;5.43;;;12.00;99.90;;;;;;5021724;28;20209;-63
2022/10/31 03:35:29;;;;;;;47.53;6.05;;;12.00;99.90;;;;;;5027640;28;20215;-62
2022/10/31 03:37:57;;;;;;;36.17;5.93;;;11.90;99.90;;;;;;5043127;28;20205;-63
2022/10/31 03:40:27;;;;;;;76.15;6.43;;;12.00;99.90;;;;;;5047388;28;20681;-62
2022/10/31 03:43:01;;;;;;;67.95;7.80;;;11.90;99.90;;;;;;5033174;28;20220;-63
2022/10/31 03:45:31;;;;;;;128.05;6.82;;;11.80;99.90;;;;;;5043484;28;20276;-62
2022/10/31 03:48:00;;;;;;;29.80;6.40;;;11.70;99.90;;;;;;5022654;28;20232;-63
2022/10/31 03:50:36;;;;;;;46.95;6.05;;;11.80;99.90;;;;;;5020950;28;20201;-63
2022/10/31 03:53:09;;;;;;;28.67;6.25;;;11.70;99.90;;;;;;5043671;28;20749;-63
2022/10/31 03:55:43;;;;;;;28.27;5.78;;;11.80;99.90;;;;;;5043736;28;20604;-62
2022/10/31 03:58:14;;;;;;;33.78;6.13;;;11.70;99.90;;;;;;5026236;28;20220;-63
2022/10/31 04:00:44;;;;;;;46.70;6.20;;;11.70;99.90;;;;;;5043817;28;20197;-63
2022/10/31 04:03:16;;;;;;;45.63;6.53;;;11.70;99.90;;;;;;5018503;28;20216;-63
2022/10/31 04:05:47;;;;;;;122.05;7.13;;;11.60;99.90;;;;;;5038676;28;20200;-63
2022/10/31 04:08:21;;;;;;;99.15;8.20;;;11.60;99.90;;;;;;5037394;28;20220;-63
2022/10/31 04:10:50;;;;;;;58.50;6.97;;;11.50;99.90;;;;;;5047504;28;20215;-63
2022/10/31 04:13:22;;;;;;;64.30;7.70;;;11.60;99.90;;;;;;5040035;28;20566;-63
2022/10/31 04:15:51;;;;;;;44.67;6.90;;;11.70;99.90;;;;;;5043393;28;20197;-63
2022/10/31 04:18:19;;;;;;;30.63;7.05;;;11.90;99.90;;;;;;5030582;28;20232;-63
2022/10/31 04:20:49;;;;;;;22.00;7.72;;;11.80;99.90;;;;;;5034370;28;20228;-63
2022/10/31 04:23:20;;;;;;;16.85;6.88;;;11.80;99.90;;;;;;5038462;28;20216;-63
2022/10/31 04:25:47;;;;;;;8.23;7.07;;;11.90;99.90;;;;;;5032609;28;20200;-62
2022/10/31 04:28:13;;;;;;;7.93;6.80;;;11.90;99.90;;;;;;5034725;28;20255;-62
2022/10/31 04:30:40;;;;;;;66.45;7.38;;;11.90;99.90;;;;;;5047568;28;20197;-63
2022/10/31 04:33:07;;;;;;;99.10;8.27;;;12.00;99.90;;;;;;5041875;28;20209;-63
2022/10/31 04:35:35;;;;;;;109.70;7.78;;;11.90;99.90;;;;;;5029231;28;20211;-63
2022/10/31 04:38:02;;;;;;;88.57;8.38;;;12.10;99.90;;;;;;5027962;28;20209;-62
2022/10/31 04:40:29;;;;;;;58.70;8.63;;;12.00;99.90;;;;;;5048860;28;20201;-63
2022/10/31 04:42:56;;;;;;;43.95;7.55;;;12.00;99.90;;;;;;5048086;28;20201;-63
2022/10/31 04:45:23;;;;;;;53.63;8.10;;;12.10;99.90;;;;;;5033375;28;20208;-63
2022/10/31 04:47:49;;;;;;;254.48;9.95;;;12.10;99.90;;;;;;5045180;28;20216;-63
2022/10/31 04:50:17;;;;;;;89.40;8.13;;;12.10;99.90;;;;;;5027670;28;20213;-62
2022/10/31 04:52:46;;;;;;;65.10;7.25;;;12.10;99.90;;;;;;5028324;28;20201;-63
2022/10/31 04:55:14;;;;;;;75.75;8.07;;;12.10;99.90;;;;;;5044340;28;20216;-63
2022/10/31 04:57:42;;;;;;;99.40;7.60;;;12.10;99.90;;;;;;5040331;28;20205;-63
2022/10/31 05:00:11;;;;;;;104.97;8.70;;;12.10;99.90;;;;;;5035520;28;20287;-62
2022/10/31 05:02:44;;;;;;;74.63;8.27;;;12.10;99.90;;;;;;5029064;28;20211;-62
2022/10/31 05:05:11;;;;;;;30.98;6.97;;;12.20;99.90;;;;;;5026851;28;20209;-63
2022/10/31 05:07:40;;;;;;;28.70;7.85;;;12.10;99.90;;;;;;5024791;28;20204;-63
2022/10/31 05:10:10;;;;;;;11.70;7.53;;;12.20;99.90;;;;;;5043854;28;20233;-63
2022/10/31 05:12:37;;;;;;;11.50;6.78;;;12.20;99.90;;;;;;5049480;28;22288;-62
2022/10/31 05:15:05;;;;;;;29.30;7.38;;;12.10;99.90;;;;;;5035613;28;20733;-63
2022/10/31 05:17:33;;;;;;;49.50;7.80;;;12.20;99.90;;;;;;5032037;28;20193;-62
2022/10/31 05:19:59;;;;;;;48.05;8.35;;;12.10;99.90;;;;;;5022394;28;20228;-63
2022/10/31 05:22:26;;;;;;;56.70;8.00;;;12.10;99.90;;;;;;5047581;28;20717;-63
2022/10/31 05:24:53;;;;;;;73.57;7.93;;;12.10;99.90;;;;;;5026071;28;20675;-62
2022/10/31 05:27:21;;;;;;;76.85;8.02;;;12.10;99.90;;;;;;5048412;28;20209;-62
2022/10/31 05:29:48;;;;;;;87.57;8.27;;;12.00;99.90;;;;;;5036462;28;20310;-62
2022/10/31 05:32:16;;;;;;;72.28;8.50;;;12.00;99.90;;;;;;5050516;28;20208;-62
2022/10/31 05:34:43;;;;;;;42.35;8.50;;;12.10;99.90;;;;;;5038838;28;20204;-62
2022/10/31 05:37:09;;;;;;;17.10;7.47;;;12.10;99.90;;;;;;5031006;28;20255;-63
2022/10/31 05:39:36;;;;;;;85.32;9.95;;;12.20;99.90;;;;;;5029499;28;20752;-63
2022/10/31 05:42:03;;;;;;;125.10;9.90;;;12.20;99.90;;;;;;5049972;28;20204;-63
2022/10/31 05:44:31;;;;;;;54.40;9.30;;;12.30;99.90;;;;;;5038802;28;20228;-63
2022/10/31 05:46:58;;;;;;;82.43;10.02;;;12.30;99.90;;;;;;5042432;28;20776;-62
2022/10/31 05:49:25;;;;;;;43.67;9.43;;;12.30;99.90;;;;;;5037515;28;20240;-63
2022/10/31 05:51:52;;;;;;;28.77;8.75;;;12.40;99.90;;;;;;5018376;28;20211;-62
2022/10/31 05:54:19;;;;;;;96.28;9.90;;;12.50;99.90;;;;;;5020124;28;20197;-63
2022/10/31 05:56:46;;;;;;;96.68;10.23;;;12.50;99.90;;;;;;5043459;28;20205;-63
2022/10/31 05:59:13;;;;;;;97.20;9.77;;;12.50;99.90;;;;;;5035375;28;20197;-63
2022/10/31 06:01:41;;;;;;;101.13;10.30;;;12.50;99.90;;;;;;5031626;28;20202;-62
2022/10/31 06:04:08;;;;;;;44.78;9.32;;;12.50;99.90;;;;;;5036614;28;20208;-63
2022/10/31 06:06:35;;;;;;;41.08;9.82;;;12.60;99.90;;;;;;5012427;28;20232;-63
2022/10/31 06:09:01;;;;;;;59.67;9.52;;;12.60;99.90;;;;;;5050104;28;20229;-63
2022/10/31 06:11:28;;;;;;;35.15;9.07;;;12.60;99.90;;;;;;5025802;28;20586;-63
2022/10/31 06:13:55;;;;;;;39.20;9.20;;;12.60;99.90;;;;;;5039731;28;20233;-62
2022/10/31 06:16:22;;;;;;;27.40;8.88;;;12.60;99.90;;;;;;5026870;28;20201;-63
2022/10/31 06:18:51;;;;;;;80.25;9.95;;;12.60;99.90;;;;;;5047824;28;20225;-62
2022/10/31 06:21:18;;;;;;;89.22;11.18;;;12.60;99.90;;;;;;5036946;28;20208;-63
2022/10/31 06:23:45;;;;;;;51.58;10.45;;;12.60;99.90;;;;;;5029344;28;20215;-63
2022/10/31 06:26:12;;;;;;;92.13;10.52;;;12.60;99.90;;;;;;5019404;28;20200;-63
2022/10/31 06:28:39;;;;;;;32.50;10.13;;;12.60;99.90;;;;;;5049891;28;20212;-64
2022/10/31 06:31:06;;;;;;;174.38;12.45;;;12.60;99.90;;;;;;5036794;28;20232;-63
2022/10/31 06:33:33;;;;;;;130.25;11.27;;;12.60;99.90;;;;;;5036765;28;20207;-63
2022/10/31 06:36:02;;;;;;;99.32;11.27;;;12.60;99.90;;;;;;5036576;28;20209;-63
2022/10/31 06:38:29;;;;;;;96.28;11.27;;;12.60;99.90;;;;;;5021710;28;26326;-63
2022/10/31 06:40:56;;;;;;;101.07;10.77;;;12.60;99.90;;;;;;5022476;28;20201;-63
2022/10/31 06:43:23;;;;;;;81.03;11.80;;;12.50;99.90;;;;;;5047827;28;20205;-63
2022/10/31 06:45:50;;;;;;;48.38;11.40;;;12.70;99.90;;;;;;5049962;28;20208;-63
2022/10/31 06:48:16;;;;;;;35.55;10.60;;;12.80;99.90;;;;;;5026102;28;20212;-63
2022/10/31 06:50:43;;;;;;;103.05;10.93;;;12.80;99.90;;;;;;5035211;28;21117;-63
2022/10/31 06:53:13;;;;;;;105.75;11.95;;;12.80;99.90;;;;;;5047508;28;20204;-63
2022/10/31 06:55:39;;;;;;;85.75;10.95;;;12.70;99.90;;;;;;5000769;28;20206;-63
2022/10/31 06:58:07;;;;;;;101.32;11.35;;;12.70;99.90;;;;;;5035369;28;20217;-63
2022/10/31 07:00:33;;;;;;;56.42;10.80;;;12.70;99.90;;;;;;5029191;28;20303;-63
2022/10/31 07:03:02;;;;;;;66.00;11.00;;;12.70;99.90;;;;;;5004975;28;20237;-63
2022/10/31 07:05:30;;;;;;;22.48;10.10;;;12.70;99.90;;;;;;5027598;28;20221;-63
2022/10/31 07:07:58;;;;;;;130.23;11.63;;;12.60;99.90;;;;;;5040291;28;20209;-63
2022/10/31 07:10:29;;;;;;;212.63;12.77;;;12.60;99.90;;;;;;5015581;28;20229;-63
2022/10/31 07:12:56;;;;;;;95.45;10.52;;;12.60;99.90;;;;;;5026132;28;20219;-62
2022/10/31 07:15:23;;;;;;;155.05;12.13;;;12.60;99.90;;;;;;5041508;28;20258;-63
2022/10/31 07:17:50;;;;;;;205.98;12.75;;;12.60;99.90;;;;;;5035961;28;20228;-63
2022/10/31 07:20:17;;;;;;;168.80;11.85;;;12.60;99.90;;;;;;5033288;28;20610;-62
2022/10/31 07:22:44;;;;;;;124.85;11.52;;;12.60;99.90;;;;;;5037172;28;20244;-63
2022/10/31 07:25:12;;;;;;;169.80;11.75;;;12.60;99.90;;;;;;5027604;28;20705;-63
2022/10/31 07:27:41;;;;;;;201.48;12.70;;;12.80;99.90;;;;;;5025233;28;20209;-63
2022/10/31 07:30:10;;;;;;;120.03;11.35;;;12.70;99.90;;;;;;5040784;28;20239;-63
2022/10/31 07:32:40;;;;;;;166.13;11.43;;;12.70;99.90;;;;;;5034439;28;20617;-63
2022/10/31 07:35:08;;;;;;;192.77;12.07;;;12.70;99.90;;;;;;5049365;28;20193;-62
2022/10/31 07:37:35;;;;;;;184.90;12.00;;;12.70;99.90;;;;;;5023581;28;20213;-63
2022/10/31 07:40:01;;;;;;;173.70;11.82;;;12.70;99.90;;;;;;5048947;28;20197;-62
2022/10/31 07:42:28;;;;;;;163.55;12.07;;;12.70;99.90;;;;;;5005782;28;20220;-63
2022/10/31 07:44:56;;;;;;;211.13;12.77;;;12.70;99.90;;;;;;5050043;28;20579;-63
2022/10/31 07:47:23;;;;;;;66.15;10.68;;;12.70;99.90;;;;;;5040088;28;20228;-63
2022/10/31 07:49:50;;;;;;;66.65;10.00;;;12.70;99.90;;;;;;5037713;28;20224;-63
2022/10/31 07:52:17;;;;;;;74.32;10.00;;;12.70;99.90;;;;;;5034300;28;20196;-62
2022/10/31 07:54:46;;;;;;;173.05;11.45;;;12.60;99.90;;;;;;5026981;28;20240;-64
2022/10/31 07:57:12;;;;;;;135.85;10.73;;;12.70;99.90;;;;;;5025024;28;20225;-64
2022/10/31 07:59:39;;;;;;;78.13;10.48;;;12.70;99.90;;;;;;5024538;28;20221;-63
2022/10/31 08:02:08;;;;;;;69.78;10.70;;;12.70;99.90;;;;;;5041145;28;20220;-63
2022/10/31 08:04:35;;;;;;;126.60;10.63;;;12.70;99.90;;;;;;5037239;28;20213;-63
2022/10/31 08:07:02;;;;;;;227.38;12.73;;;12.80;99.90;;;;;;5048649;28;20705;-63
2022/10/31 08:09:29;;;;;;;84.13;11.02;;;12.80;99.90;;;;;;5039676;28;20224;-63
2022/10/31 08:11:55;;;;;;;96.45;11.07;;;12.90;99.90;;;;;;5014225;28;20691;-62
2022/10/31 08:14:23;;;;;;;85.47;11.38;;;12.80;99.90;;;;;;5020105;28;20205;-63
2022/10/31 08:16:49;;;;;;;106.93;11.65;;;12.90;99.90;;;;;;5021704;28;20217;-63
2022/10/31 08:19:18;;;;;;;107.22;11.68;;;12.90;99.90;;;;;;5028176;28;20224;-63
2022/10/31 08:21:44;;;;;;;54.60;10.35;;;12.90;99.90;;;;;;5038785;28;20193;-63
2022/10/31 08:24:11;;;;;;;79.78;10.88;;;12.90;99.90;;;;;;5017961;28;20225;-62
2022/10/31 08:26:38;;;;;;;47.38;9.70;;;13.00;99.90;;;;;;5028365;28;20714;-64
2022/10/31 08:29:05;;;;;;;57.67;10.80;;;13.10;99.90;;;;;;5002085;28;21080;-65
2022/10/31 08:31:32;;;;;;;46.33;10.93;;;13.00;99.90;;;;;;5042879;28;20888;-63
2022/10/31 08:33:58;;;;;;;46.28;11.10;;;13.00;99.90;;;;;;5029072;28;20228;-64
2022/10/31 08:36:28;;;;;;;43.28;11.15;;;13.00;99.90;;;;;;5029465;28;20255;-64
2022/10/31 08:38:55;;;;;;;41.55;10.50;;;13.00;99.90;;;;;;5026863;28;20233;-64
2022/10/31 08:41:22;;;;;;;31.23;11.10;;;13.00;99.90;;;;;;5034300;28;20225;-65
2022/10/31 08:43:49;;;;;;;50.67;12.30;;;13.10;99.90;;;;;;5023622;28;20204;-64
2022/10/31 08:46:16;;;;;;;39.35;9.93;;;13.10;99.90;;;;;;5019488;28;20729;-64
2022/10/31 08:48:43;;;;;;;50.25;10.52;;;13.10;99.90;;;;;;5039554;28;20208;-64
2022/10/31 08:51:11;;;;;;;61.17;12.90;;;13.10;99.90;;;;;;5030778;28;20225;-63
2022/10/31 08:53:39;;;;;;;39.97;12.10;;;13.10;99.90;;;;;;5024659;28;20738;-64
2022/10/31 08:56:06;;;;;;;145.38;13.18;;;13.20;99.90;;;;;;5017081;28;20682;-64
2022/10/31 08:58:33;;;;;;;108.82;12.43;;;13.20;99.90;;;;;;5021123;28;20208;-64
2022/10/31 09:01:01;;;;;;;27.48;11.48;;;13.10;99.90;;;;;;5011465;28;20204;-64
2022/10/31 09:03:30;;;;;;;118.50;13.18;;;13.20;99.90;;;;;;5032759;28;20211;-64
2022/10/31 09:05:58;;;;;;;125.90;13.23;;;13.20;99.90;;;;;;5022775;28;20290;-65
2022/10/31 09:08:25;;;;;;;68.72;12.73;;;13.20;99.90;;;;;;5028185;28;21070;-64
2022/10/31 09:10:57;;;;;;;97.32;13.60;;;13.20;99.90;;;;;;5031981;28;20247;-64
2022/10/31 09:13:24;;;;;;;47.03;12.27;;;13.20;99.90;;;;;;5011787;28;20229;-66
2022/10/31 09:15:52;;;;;;;89.15;12.05;;;13.10;99.90;;;;;;5001395;28;20605;-63
2022/10/31 09:18:20;;;;;;;35.78;11.23;;;13.30;99.90;;;;;;5043665;28;20228;-63
2022/10/31 09:20:49;;;;;;;20.80;10.55;;;13.30;99.90;;;;;;5030000;28;20492;-64
2022/10/31 09:23:17;;;;;;;39.33;11.68;;;13.40;99.90;;;;;;5026547;28;20236;-65
2022/10/31 09:25:45;;;;;;;20.38;13.02;;;13.50;99.90;;;;;;5019236;28;20705;-64
2022/10/31 09:28:15;;;;;;;36.22;13.02;;;13.50;99.90;;;;;;5042730;28;20208;-64
2022/10/31 09:30:42;;;;;;;95.90;15.77;;;13.70;99.90;;;;;;4999995;28;20261;-65
2022/10/31 09:33:12;;;;;;;26.10;13.77;;;13.50;99.90;;;;;;5028322;28;20897;-64
2022/10/31 09:35:40;;;;;;;90.20;15.13;;;13.60;99.90;;;;;;5041638;28;20208;-65
2022/10/31 09:38:09;;;;;;;23.15;15.27;;;13.70;99.90;;;;;;5039674;28;22849;-64
2022/10/31 09:40:39;;;;;;;20.25;13.88;;;13.80;99.90;;;;;;5048408;28;20203;-65
2022/10/31 09:43:16;;;;;;;30.58;13.77;;;13.80;99.90;;;;;;5039219;28;20442;-64
2022/10/31 09:45:54;;;;;;;21.40;14.50;;;13.80;99.90;;;;;;4997151;28;20224;-64
2022/10/31 09:48:45;;;;;;;24.27;15.13;;;14.00;99.90;;;;;;5052624;28;20208;-63
2022/10/31 09:51:16;;;;;;;30.40;14.85;;;14.00;99.90;;;;;;5028639;28;20235;-64
2022/10/31 09:53:48;;;;;;;23.25;15.27;;;14.00;99.90;;;;;;5042455;28;20212;-66
2022/10/31 09:56:18;;;;;;;24.50;15.73;;;14.00;99.90;;;;;;5044562;28;20204;-65
2022/10/31 09:58:51;;;;;;;32.08;16.15;;;14.10;99.90;;;;;;5016864;28;20231;-67
2022/10/31 10:01:32;;;;;;;24.50;16.15;;;14.20;99.90;;;;;;5011666;28;22287;-67
2022/10/31 10:04:06;;;;;;;27.65;18.48;;;14.20;99.90;;;;;;5046577;28;20199;-64
2022/10/31 10:06:36;;;;;;;33.20;21.10;;;14.30;99.90;;;;;;5012445;28;20710;-64
2022/10/31 10:09:03;;;;;;;29.88;20.25;;;14.30;99.90;;;;;;5044042;28;20200;-64
2022/10/31 10:11:49;;;;;;;31.65;18.90;;;14.30;99.90;;;;;;5040415;28;20225;-65
2022/10/31 10:14:34;;;;;;;26.60;17.92;;;14.30;99.90;;;;;;5033455;28;20677;-65
2022/10/31 10:17:20;;;;;;;28.08;17.45;;;14.40;99.90;;;;;;5002514;28;24666;-65
2022/10/31 10:20:10;;;;;;;30.65;17.88;;;14.50;99.90;;;;;;5028041;28;20815;-64
2022/10/31 10:22:43;;;;;;;28.58;17.85;;;14.40;99.90;;;;;;5019932;28;20197;-64
2022/10/31 10:25:17;;;;;;;29.48;18.27;;;14.50;99.90;;;;;;5031401;28;20710;-64
2022/10/31 10:27:58;;;;;;;25.85;17.20;;;14.60;99.90;;;;;;5028661;28;20335;-64
2022/10/31 10:30:34;;;;;;;30.20;17.05;;;14.60;99.90;;;;;;5009913;28;20229;-68
2022/10/31 10:33:04;;;;;;;27.52;18.05;;;14.60;99.90;;;;;;5010857;28;20733;-65
2022/10/31 10:35:34;;;;;;;29.58;18.70;;;14.60;99.90;;;;;;5023953;28;20201;-64
2022/10/31 10:38:09;;;;;;;33.97;18.35;;;14.70;99.90;;;;;;5032319;22;20969;-66
2022/10/31 10:40:37;;;;;;;32.58;18.65;;;14.70;99.90;;;;;;5016807;28;20231;-65
2022/10/31 10:43:25;;;;;;;23.42;16.98;;;14.70;99.90;;;;;;5039043;28;20225;-64
2022/10/31 10:49:07;;;;;;;26.63;17.02;;;14.90;99.90;;;;;;5001151;28;20200;-65
2022/10/31 10:51:41;;;;;;;24.60;16.38;;;14.30;99.90;;;;;;5024611;28;20220;-66
2022/10/31 10:54:21;;;;;;;24.08;17.10;;;15.10;99.90;;;;;;5040773;28;20220;-66
2022/10/31 10:57:01;;;;;;;25.52;16.30;;;15.10;99.90;;;;;;5025258;28;20208;-66
2022/10/31 10:59:30;;;;;;;25.33;16.38;;;15.20;99.90;;;;;;5034329;28;20201;-67
2022/10/31 11:01:59;;;;;;;24.90;16.70;;;15.10;99.90;;;;;;5015842;28;20813;-66
2022/10/31 11:04:31;;;;;;;26.85;16.05;;;15.20;99.90;;;;;;5008229;28;20224;-67
2022/10/31 11:06:59;;;;;;;27.52;16.08;;;15.30;99.90;;;;;;5041749;28;20288;-65
2022/10/31 11:09:26;;;;;;;31.40;16.77;;;15.30;99.90;;;;;;5014534;28;20229;-66
2022/10/31 11:11:54;;;;;;;28.10;16.50;;;15.30;99.90;;;;;;5009785;28;20293;-65
2022/10/31 11:14:21;;;;;;;29.38;15.55;;;15.40;99.90;;;;;;5036893;28;20224;-65
2022/10/31 11:16:50;;;;;;;25.23;15.63;;;15.40;99.90;;;;;;5016241;28;20232;-66
2022/10/31 11:19:21;;;;;;;29.38;15.85;;;15.50;99.90;;;;;;4986233;28;20314;-66
2022/10/31 11:21:49;;;;;;;25.95;15.45;;;15.40;99.90;;;;;;5020425;28;21027;-66
2022/10/31 11:24:19;;;;;;;29.88;15.75;;;15.40;99.90;;;;;;5023297;28;20309;-65
2022/10/31 11:26:48;;;;;;;27.33;16.30;;;15.40;99.90;;;;;;5032692;28;20589;-65
2022/10/31 11:29:18;;;;;;;26.05;16.63;;;15.50;99.90;;;;;;5022778;28;20227;-66
2022/10/31 11:31:47;;;;;;;26.08;15.98;;;15.60;99.90;;;;;;5024418;28;20808;-65
2022/10/31 11:34:21;;;;;;;25.58;15.88;;;15.60;99.90;;;;;;5013311;28;20266;-65
2022/10/31 11:36:49;;;;;;;24.08;14.57;;;15.60;99.90;;;;;;5013525;28;20242;-65
2022/10/31 11:39:19;;;;;;;27.23;15.10;;;15.60;99.90;;;;;;5011520;28;20225;-65
2022/10/31 11:41:47;;;;;;;22.65;14.50;;;14.20;99.90;;;;;;5029862;28;20228;-65
2022/10/31 11:44:18;;;;;;;22.42;14.82;;;15.50;99.90;;;;;;5014181;28;20220;-65
2022/10/31 11:46:48;;;;;;;26.60;16.85;;;15.60;99.90;;;;;;5019448;28;20350;-65
2022/10/31 11:49:19;;;;;;;28.80;15.55;;;15.60;99.90;;;;;;5012746;28;20216;-65
2022/10/31 11:51:50;;;;;;;30.40;15.73;;;15.60;99.90;;;;;;5000681;28;20299;-64
2022/10/31 11:54:24;;;;;;;25.25;16.42;;;15.60;99.90;;;;;;5016181;28;20229;-65
2022/10/31 11:56:51;;;;;;;27.25;14.43;;;15.60;99.90;;;;;;5025428;28;20204;-66
2022/10/31 11:59:24;;;;;;;24.48;14.82;;;15.60;99.90;;;;;;5015272;28;20225;-66
2022/10/31 12:01:53;;;;;;;27.15;15.20;;;15.60;99.90;;;;;;5022936;28;20655;-66
2022/10/31 12:04:28;;;;;;;30.95;15.90;;;15.60;99.90;;;;;;5013937;28;20201;-65
2022/10/31 12:06:55;;;;;;;33.83;15.70;;;15.60;99.90;;;;;;4992747;28;20222;-65
2022/10/31 12:09:24;;;;;;;28.30;15.82;;;15.50;99.90;;;;;;5029473;22;20208;-63
2022/10/31 12:12:06;;;;;;;32.40;15.80;;;15.60;99.90;;;;;;4980114;28;20254;-64
2022/10/31 12:14:40;;;;;;;27.95;14.88;;;15.60;99.90;;;;;;4999812;28;20230;-64
2022/10/31 12:17:14;;;;;;;26.38;14.75;;;15.50;99.90;;;;;;4981271;28;20213;-64
2022/10/31 12:19:46;;;;;;;24.08;13.63;;;15.50;99.90;;;;;;4980921;28;20227;-65
2022/10/31 12:22:21;;;;;;;24.38;14.02;;;15.50;99.90;;;;;;4948999;28;20225;-65
2022/10/31 12:25:10;;;;;;;25.67;12.95;;;15.50;99.90;;;;;;4981495;28;20217;-63
2022/10/31 12:28:04;;;;;;;23.33;14.38;;;15.60;99.90;;;;;;4974666;28;20221;-64
2022/10/31 12:30:41;;;;;;;30.58;14.20;;;15.50;99.90;;;;;;4979689;28;20233;-64
2022/10/31 12:33:28;;;;;;;21.63;12.30;;;15.60;99.90;;;;;;4963050;28;21457;-66
2022/10/31 12:36:11;;;;;;;27.60;13.02;;;15.50;99.90;;;;;;4954265;28;20949;-64
2022/10/31 12:38:51;;;;;;;23.10;12.93;;;15.60;99.90;;;;;;4968520;28;20229;-64
2022/10/31 12:41:35;;;;;;;27.65;14.48;;;15.50;99.90;;;;;;4974542;28;20245;-64
2022/10/31 12:44:07;;;;;;;25.40;13.43;;;15.50;99.90;;;;;;4982161;28;20308;-64
2022/10/31 12:46:56;;;;;;;27.70;14.65;;;15.50;99.90;;;;;;4974479;28;20226;-64